createdAt,value
2022-11-08T00:01:28.086Z,95.10
2022-11-08T00:03:58.507Z,94.84
2022-11-08T00:06:41.413Z,94.96
2022-11-08T00:09:24.224Z,95.43
2022-11-08T00:12:06.816Z,95.69
2022-11-08T00:14:37.006Z,96.28
2022-11-08T00:17:09.893Z,96.83
2022-11-08T00:19:40.043Z,97.00
2022-11-08T00:22:10.256Z,96.84
2022-11-08T00:24:40.839Z,96.59
2022-11-08T00:27:14.035Z,96.86
2022-11-08T00:29:44.265Z,97.12
2022-11-08T00:32:20.203Z,97.38
2022-11-08T00:34:51.120Z,97.42
2022-11-08T00:37:23.395Z,97.53
2022-11-08T00:39:53.497Z,97.29
2022-11-08T00:42:23.572Z,97.41
2022-11-08T00:44:53.597Z,97.46
2022-11-08T00:47:26.262Z,97.43
2022-11-08T00:49:56.427Z,98.00
2022-11-08T00:52:26.612Z,98.15
2022-11-08T00:54:56.642Z,98.26
2022-11-08T00:57:41.170Z,97.98
2022-11-08T01:00:18.203Z,98.53
2022-11-08T01:03:11.192Z,98.78
2022-11-08T01:05:41.750Z,98.37
2022-11-08T01:08:13.284Z,98.46
2022-11-08T01:10:44.870Z,98.35
2022-11-08T01:13:15.907Z,97.97
2022-11-08T01:15:47.127Z,97.58
2022-11-08T01:18:21.056Z,97.11
2022-11-08T01:20:53.110Z,97.45
2022-11-08T01:23:23.326Z,97.33
2022-11-08T01:25:53.403Z,96.97
2022-11-08T01:28:23.496Z,97.00
2022-11-08T01:30:53.496Z,97.22
2022-11-08T01:33:26.353Z,97.53
2022-11-08T01:35:56.532Z,97.42
2022-11-08T01:38:26.772Z,97.16
2022-11-08T01:40:57.206Z,96.88
2022-11-08T01:43:46.251Z,96.98
2022-11-08T01:46:44.770Z,96.93
2022-11-08T01:49:41.196Z,96.80
2022-11-08T01:52:24.602Z,96.87
2022-11-08T01:55:08.499Z,96.71
2022-11-08T01:57:48.814Z,96.38
2022-11-08T02:00:20.194Z,96.48
2022-11-08T02:02:58.209Z,96.54
2022-11-08T02:05:33.219Z,96.59
2022-11-08T02:08:10.302Z,96.72
2022-11-08T02:10:43.580Z,96.91
2022-11-08T02:13:18.954Z,96.90
2022-11-08T02:15:49.456Z,96.53
2022-11-08T02:18:22.030Z,96.73
2022-11-08T02:21:07.762Z,96.76
2022-11-08T02:23:49.807Z,96.58
2022-11-08T02:26:22.784Z,96.65
2022-11-08T02:28:53.783Z,97.05
2022-11-08T02:31:23.899Z,96.91
2022-11-08T02:33:54.261Z,96.98
2022-11-08T02:36:27.629Z,97.25
2022-11-08T02:39:01.172Z,97.01
2022-11-08T02:41:31.255Z,96.88
2022-11-08T02:44:02.471Z,97.24
2022-11-08T02:46:32.897Z,97.25
2022-11-08T02:49:03.134Z,96.89
2022-11-08T02:51:33.208Z,96.69
2022-11-08T02:54:06.167Z,96.42
2022-11-08T02:56:36.433Z,96.35
2022-11-08T02:59:06.716Z,96.48
2022-11-08T03:01:39.896Z,96.63
2022-11-08T03:04:10.188Z,96.91
2022-11-08T03:06:40.485Z,96.60
2022-11-08T03:09:13.985Z,96.76
2022-11-08T03:11:44.386Z,96.76
2022-11-08T03:14:14.547Z,96.97
2022-11-08T03:16:44.613Z,97.00
2022-11-08T03:19:15.201Z,96.83
2022-11-08T03:21:45.336Z,96.65
2022-11-08T03:24:18.258Z,96.57
2022-11-08T03:26:48.482Z,96.44
2022-11-08T03:29:18.555Z,96.08
2022-11-08T03:31:48.688Z,95.77
2022-11-08T03:34:18.863Z,95.80
2022-11-08T03:36:48.977Z,95.31
2022-11-08T03:39:21.732Z,94.75
2022-11-08T03:41:51.892Z,94.99
2022-11-08T03:44:22.016Z,95.16
2022-11-08T03:46:52.178Z,95.05
2022-11-08T03:49:22.251Z,95.23
2022-11-08T03:51:52.418Z,95.01
2022-11-08T03:54:25.140Z,94.68
2022-11-08T03:56:55.656Z,94.64
2022-11-08T03:59:25.805Z,94.04
2022-11-08T04:01:55.976Z,93.93
2022-11-08T04:04:26.331Z,94.10
2022-11-08T04:06:56.323Z,94.01
2022-11-08T04:09:29.226Z,93.74
2022-11-08T04:12:11.820Z,94.32
2022-11-08T04:14:54.437Z,94.73
2022-11-08T04:17:45.165Z,95.14
2022-11-08T04:20:27.788Z,95.17
2022-11-08T04:22:57.896Z,95.11
2022-11-08T04:25:34.935Z,95.87
2022-11-08T04:28:05.941Z,96.07
2022-11-08T04:30:37.227Z,96.34
2022-11-08T04:33:08.576Z,96.36
2022-11-08T04:35:38.674Z,95.86
2022-11-08T04:38:08.891Z,95.51
2022-11-08T04:40:41.630Z,95.58
2022-11-08T04:43:11.988Z,95.18
2022-11-08T04:45:42.680Z,94.99
2022-11-08T04:48:13.022Z,94.71
2022-11-08T04:50:43.419Z,95.02
2022-11-08T04:53:13.536Z,94.80
2022-11-08T04:55:46.203Z,95.55
2022-11-08T04:58:16.898Z,95.70
2022-11-08T05:00:47.298Z,95.77
2022-11-08T05:03:17.402Z,96.32
2022-11-08T05:05:47.436Z,95.76
2022-11-08T05:08:17.827Z,95.97
2022-11-08T05:10:50.795Z,96.36
2022-11-08T05:13:20.930Z,96.30
2022-11-08T05:15:50.925Z,96.38
2022-11-08T05:18:21.079Z,96.20
2022-11-08T05:21:09.720Z,96.27
2022-11-08T05:23:39.906Z,96.20
2022-11-08T05:26:12.725Z,95.89
2022-11-08T05:28:43.189Z,95.98
2022-11-08T05:31:17.125Z,96.24
2022-11-08T05:33:47.722Z,96.44
2022-11-08T05:36:19.269Z,96.02
2022-11-08T05:38:49.696Z,96.03
2022-11-08T05:41:25.585Z,95.90
2022-11-08T05:43:57.528Z,96.14
2022-11-08T05:46:30.308Z,96.17
2022-11-08T05:49:00.504Z,95.63
2022-11-08T05:51:30.601Z,95.36
2022-11-08T05:54:00.701Z,95.26
2022-11-08T05:56:33.398Z,95.18
2022-11-08T05:59:03.724Z,94.99
2022-11-08T06:01:34.180Z,94.92
2022-11-08T06:04:04.368Z,95.04
2022-11-08T06:06:34.463Z,94.78
2022-11-08T06:09:04.640Z,94.79
2022-11-08T06:11:37.580Z,94.37
2022-11-08T06:14:07.802Z,94.36
2022-11-08T06:16:37.854Z,93.46
2022-11-08T06:19:08.117Z,93.19
2022-11-08T06:21:38.800Z,92.99
2022-11-08T06:24:10.470Z,93.29
2022-11-08T06:26:43.146Z,93.08
2022-11-08T06:29:13.623Z,92.80
2022-11-08T06:31:55.207Z,92.76
2022-11-08T06:34:25.440Z,92.47
2022-11-08T06:36:58.796Z,92.46
2022-11-08T06:39:29.011Z,91.70
2022-11-08T06:42:01.874Z,90.92
2022-11-08T06:44:31.973Z,91.14
2022-11-08T06:47:02.155Z,90.58
2022-11-08T06:49:32.160Z,90.09
2022-11-08T06:52:02.392Z,89.01
2022-11-08T06:54:32.958Z,88.30
2022-11-08T06:57:05.910Z,87.66
2022-11-08T06:59:36.131Z,87.43
2022-11-08T07:02:06.342Z,86.87
2022-11-08T07:04:36.686Z,85.36
2022-11-08T07:07:06.959Z,83.27
2022-11-08T07:09:37.396Z,81.51
2022-11-08T07:12:10.212Z,80.88
2022-11-08T07:14:40.385Z,80.72
2022-11-08T07:17:10.652Z,80.68
2022-11-08T07:19:40.772Z,80.66
2022-11-08T07:22:10.938Z,80.49
2022-11-08T07:24:41.251Z,80.42
2022-11-08T07:27:13.997Z,80.59
2022-11-08T07:29:44.215Z,80.50
2022-11-08T07:32:14.331Z,80.85
2022-11-08T07:34:44.444Z,80.68
2022-11-08T07:37:14.614Z,80.58
2022-11-08T07:39:44.616Z,80.34
2022-11-08T07:42:17.400Z,78.97
2022-11-08T07:44:49.157Z,78.61
2022-11-08T07:47:19.287Z,78.64
2022-11-08T07:49:49.340Z,77.24
2022-11-08T07:52:19.528Z,76.05
2022-11-08T07:54:49.727Z,75.48
2022-11-08T07:57:22.660Z,75.15
2022-11-08T07:59:52.770Z,74.66
2022-11-08T08:02:24.149Z,72.59
2022-11-08T08:04:54.400Z,71.65
2022-11-08T08:07:24.448Z,69.44
2022-11-08T08:09:54.576Z,66.52
2022-11-08T08:12:27.436Z,63.93
2022-11-08T08:14:57.565Z,62.20
2022-11-08T08:17:27.874Z,61.27
2022-11-08T08:19:58.019Z,58.76
2022-11-08T08:22:28.174Z,58.82
2022-11-08T08:25:02.739Z,59.76
2022-11-08T08:27:35.875Z,60.99
2022-11-08T08:30:06.469Z,62.49
2022-11-08T08:32:37.204Z,63.31
2022-11-08T08:35:08.285Z,63.22
2022-11-08T08:37:38.568Z,62.74
2022-11-08T08:40:11.150Z,60.02
2022-11-08T08:42:43.876Z,55.60
2022-11-08T08:45:15.229Z,54.31
2022-11-08T08:47:45.555Z,54.84
2022-11-08T08:50:15.698Z,54.87
2022-11-08T08:52:45.996Z,54.50
2022-11-08T08:55:16.350Z,52.18
2022-11-08T08:57:52.197Z,49.73
2022-11-08T09:03:14.192Z,46.13
2022-11-08T09:05:46.867Z,46.61
2022-11-08T09:08:18.101Z,47.50
2022-11-08T09:10:48.193Z,47.07
2022-11-08T09:13:21.177Z,45.92
2022-11-08T09:15:51.458Z,45.65
2022-11-08T09:18:22.310Z,45.26
2022-11-08T09:20:52.475Z,45.71
2022-11-08T09:23:22.653Z,45.89
2022-11-08T09:25:52.770Z,45.38
2022-11-08T09:28:30.733Z,46.26
2022-11-08T09:31:04.751Z,44.74
2022-11-08T09:33:35.436Z,44.02
2022-11-08T09:36:07.035Z,45.27
2022-11-08T09:38:37.544Z,44.95
2022-11-08T09:41:41.573Z,43.76
2022-11-08T09:44:41.049Z,42.49
2022-11-08T09:47:22.470Z,43.44
2022-11-08T09:50:02.822Z,43.11
2022-11-08T09:52:35.911Z,44.18
2022-11-08T09:55:20.921Z,43.07
2022-11-08T09:58:07.235Z,43.40
2022-11-08T10:00:43.459Z,42.38
2022-11-08T10:03:18.411Z,39.32
2022-11-08T10:06:05.118Z,39.41
2022-11-08T10:08:40.922Z,38.51
2022-11-08T10:11:25.812Z,39.06
2022-11-08T10:14:12.669Z,40.22
2022-11-08T10:16:53.862Z,40.43
2022-11-08T10:19:52.218Z,40.64
2022-11-08T10:22:33.884Z,42.15
2022-11-08T10:25:06.216Z,41.48
2022-11-08T10:27:40.630Z,40.56
2022-11-08T10:30:21.629Z,39.65
2022-11-08T10:32:57.896Z,40.75
2022-11-08T10:35:33.161Z,40.55
2022-11-08T10:38:04.840Z,39.78
2022-11-08T10:40:45.748Z,39.42
2022-11-08T10:43:30.008Z,38.90
2022-11-08T10:46:00.145Z,38.61
2022-11-08T10:48:40.237Z,37.84
2022-11-08T10:51:11.278Z,37.84
2022-11-08T10:53:48.882Z,37.85
2022-11-08T10:56:19.740Z,38.33
2022-11-08T10:58:49.819Z,38.16
2022-11-08T11:01:23.192Z,38.04
2022-11-08T11:03:56.724Z,38.64
2022-11-08T11:06:30.757Z,38.65
2022-11-08T11:09:04.310Z,37.06
2022-11-08T11:11:40.930Z,36.70
2022-11-08T11:14:21.752Z,35.45
2022-11-08T11:17:00.259Z,34.91
2022-11-08T11:19:33.824Z,33.90
2022-11-08T11:22:07.962Z,32.39
2022-11-08T11:24:39.267Z,32.31
2022-11-08T11:27:12.388Z,31.64
2022-11-08T11:29:42.503Z,31.51
2022-11-08T11:32:27.256Z,31.02
2022-11-08T11:35:02.926Z,30.80
2022-11-08T11:37:42.222Z,30.20
2022-11-08T11:40:24.562Z,29.09
2022-11-08T11:43:05.842Z,27.88
2022-11-08T11:45:45.282Z,27.39
2022-11-08T11:48:20.835Z,28.32
2022-11-08T11:50:54.512Z,28.40
2022-11-08T11:53:28.571Z,30.14
2022-11-08T11:56:33.967Z,31.06
2022-11-08T12:03:18.331Z,31.37
2022-11-08T12:06:07.905Z,32.50
2022-11-08T12:08:57.095Z,30.47
2022-11-08T12:11:43.770Z,28.78
2022-11-08T12:14:35.023Z,27.37
2022-11-08T12:17:23.848Z,25.92
2022-11-08T12:20:10.088Z,25.87
2022-11-08T12:22:57.517Z,24.28
2022-11-08T12:25:35.538Z,24.06
2022-11-08T12:28:26.399Z,23.95
2022-11-08T12:31:04.870Z,23.25
2022-11-08T12:33:47.158Z,22.52
2022-11-08T12:36:27.187Z,21.55
2022-11-08T12:39:22.191Z,21.82
2022-11-08T12:42:10.586Z,21.77
2022-11-08T12:45:21.469Z,21.06
2022-11-08T12:48:00.063Z,20.92
2022-11-08T12:50:38.988Z,20.97
2022-11-08T12:53:51.637Z,20.92
2022-11-08T12:56:29.936Z,22.21
2022-11-08T12:59:00.547Z,23.45
2022-11-08T13:01:30.917Z,24.12
2022-11-08T13:04:51.487Z,25.41
2022-11-08T13:07:41.222Z,27.16
2022-11-08T13:10:24.779Z,28.81
2022-11-08T13:13:17.547Z,30.19
2022-11-08T13:16:11.660Z,32.03
2022-11-08T13:18:50.522Z,32.64
2022-11-08T13:21:39.920Z,33.29
2022-11-08T13:27:50.439Z,34.21
2022-11-08T13:30:41.445Z,34.77
2022-11-08T13:33:29.169Z,34.93
2022-11-08T13:36:20.860Z,34.36
2022-11-08T13:39:01.938Z,33.82
2022-11-08T13:41:35.013Z,32.07
2022-11-08T13:44:55.249Z,31.51
2022-11-08T13:48:02.193Z,31.49
2022-11-08T13:50:57.722Z,31.65
2022-11-08T13:53:47.474Z,31.69
2022-11-08T13:56:44.166Z,32.29
2022-11-08T14:00:01.926Z,32.82
2022-11-08T14:02:45.399Z,33.28
2022-11-08T14:05:51.753Z,34.41
2022-11-08T14:08:31.543Z,35.75
2022-11-08T14:11:33.517Z,35.30
2022-11-08T14:14:25.677Z,35.96
2022-11-08T14:17:23.186Z,35.90
2022-11-08T14:19:54.740Z,36.67
2022-11-08T14:22:32.123Z,37.32
2022-11-08T14:25:16.647Z,38.62
2022-11-08T14:27:46.885Z,39.13
2022-11-08T14:30:19.917Z,39.07
2022-11-08T14:32:51.099Z,39.33
2022-11-08T14:35:28.454Z,40.04
2022-11-08T14:38:01.301Z,40.20
2022-11-08T14:40:32.703Z,41.09
2022-11-08T14:43:02.872Z,41.31
2022-11-08T14:45:33.006Z,41.98
2022-11-08T14:48:07.139Z,42.13
2022-11-08T14:50:38.113Z,42.65
2022-11-08T14:53:27.698Z,43.03
2022-11-08T14:56:15.041Z,43.47
2022-11-08T14:58:45.650Z,43.89
2022-11-08T15:01:18.042Z,44.30
2022-11-08T15:03:54.448Z,44.56
2022-11-08T15:06:26.141Z,44.51
2022-11-08T15:08:59.517Z,44.97
2022-11-08T15:11:33.824Z,45.47
2022-11-08T15:14:07.017Z,45.83
2022-11-08T15:16:45.527Z,46.24
2022-11-08T15:19:33.177Z,46.58
2022-11-08T15:22:06.374Z,47.21
2022-11-08T15:24:42.732Z,47.44
2022-11-08T15:27:19.477Z,47.64
2022-11-08T15:29:55.402Z,47.82
2022-11-08T15:32:26.042Z,48.20
2022-11-08T15:34:58.731Z,48.10
2022-11-08T15:37:34.161Z,48.99
2022-11-08T15:40:10.438Z,49.24
2022-11-08T15:42:47.242Z,49.42
2022-11-08T15:45:28.999Z,50.09
2022-11-08T15:48:14.577Z,50.07
2022-11-08T15:50:44.783Z,50.14
2022-11-08T15:53:14.860Z,50.51
2022-11-08T15:55:53.140Z,51.11
2022-11-08T15:58:29.789Z,51.65
2022-11-08T16:01:02.371Z,52.55
2022-11-08T16:03:34.092Z,53.23
2022-11-08T16:06:04.376Z,54.39
2022-11-08T16:08:34.454Z,54.99
2022-11-08T16:11:07.661Z,55.74
2022-11-08T16:13:42.042Z,55.70
2022-11-08T16:16:16.735Z,55.40
2022-11-08T16:18:47.338Z,55.00
2022-11-08T16:21:18.271Z,55.00
2022-11-08T16:23:48.273Z,55.33
2022-11-08T16:26:21.650Z,55.84
2022-11-08T16:28:51.806Z,56.18
2022-11-08T16:31:21.809Z,56.77
2022-11-08T16:33:54.095Z,57.07
2022-11-08T16:36:27.778Z,57.48
2022-11-08T16:38:59.988Z,57.97
2022-11-08T16:41:33.005Z,58.10
2022-11-08T16:44:03.127Z,58.08
2022-11-08T16:46:33.236Z,58.20
2022-11-08T16:49:03.398Z,58.63
2022-11-08T16:51:33.458Z,58.73
2022-11-08T16:54:05.281Z,58.69
2022-11-08T16:56:37.966Z,58.73
2022-11-08T16:59:08.306Z,58.45
2022-11-08T17:01:38.439Z,58.01
2022-11-08T17:04:08.711Z,57.92
2022-11-08T17:06:38.833Z,57.75
2022-11-08T17:09:09.441Z,57.33
2022-11-08T17:11:42.099Z,56.96
2022-11-08T17:14:13.990Z,56.71
2022-11-08T17:16:44.254Z,56.60
2022-11-08T17:19:14.401Z,56.37
2022-11-08T17:21:45.692Z,56.76
2022-11-08T17:24:21.669Z,56.40
2022-11-08T17:26:55.472Z,56.06
2022-11-08T17:29:25.851Z,55.72
2022-11-08T17:31:55.999Z,54.98
2022-11-08T17:34:26.048Z,54.85
2022-11-08T17:36:56.104Z,55.06
2022-11-08T17:39:26.300Z,55.06
2022-11-08T17:41:58.911Z,55.01
2022-11-08T17:44:29.600Z,54.76
2022-11-08T17:46:59.788Z,54.89
2022-11-08T17:49:31.039Z,54.83
2022-11-08T17:52:01.415Z,54.64
2022-11-08T17:54:31.679Z,54.64
2022-11-08T17:57:04.662Z,54.64
2022-11-08T17:59:34.870Z,54.88
2022-11-08T18:02:05.081Z,54.97
2022-11-08T18:04:35.391Z,55.14
2022-11-08T18:07:05.596Z,54.54
2022-11-08T18:09:35.858Z,54.73
2022-11-08T18:12:09.129Z,54.98
2022-11-08T18:14:39.332Z,54.97
2022-11-08T18:17:09.452Z,55.08
2022-11-08T18:19:39.529Z,55.16
2022-11-08T18:22:09.582Z,54.95
2022-11-08T18:24:39.615Z,55.01
2022-11-08T18:27:14.676Z,54.98
2022-11-08T18:29:44.801Z,54.63
2022-11-08T18:32:17.284Z,54.21
2022-11-08T18:34:47.455Z,54.47
2022-11-08T18:37:17.546Z,54.30
2022-11-08T18:39:47.763Z,54.23
2022-11-08T18:42:20.394Z,53.97
2022-11-08T18:44:50.577Z,54.35
2022-11-08T18:47:20.656Z,54.27
2022-11-08T18:49:50.761Z,54.40
2022-11-08T18:52:20.964Z,54.31
2022-11-08T18:54:51.192Z,54.80
2022-11-08T18:57:24.038Z,54.89
2022-11-08T18:59:58.367Z,55.11
2022-11-08T19:02:31.046Z,54.87
2022-11-08T19:05:01.182Z,54.55
2022-11-08T19:07:31.364Z,54.29
2022-11-08T19:10:01.440Z,54.17
2022-11-08T19:12:34.231Z,54.06
2022-11-08T19:15:04.425Z,53.75
2022-11-08T19:17:36.415Z,53.71
2022-11-08T19:20:08.010Z,53.76
2022-11-08T19:22:38.192Z,53.25
2022-11-08T19:25:09.024Z,53.46
2022-11-08T19:27:41.540Z,53.52
2022-11-08T19:30:13.097Z,53.05
2022-11-08T19:32:45.715Z,52.84
2022-11-08T19:35:16.671Z,53.07
2022-11-08T19:37:46.528Z,53.24
2022-11-08T19:40:16.718Z,53.58
2022-11-08T19:42:49.426Z,53.65
2022-11-08T19:45:19.714Z,53.69
2022-11-08T19:47:51.704Z,53.76
2022-11-08T19:50:21.970Z,53.94
2022-11-08T19:52:52.853Z,53.58
2022-11-08T19:55:22.969Z,53.40
2022-11-08T19:57:55.605Z,53.34
2022-11-08T20:00:25.791Z,53.11
2022-11-08T20:02:56.115Z,52.98
2022-11-08T20:05:26.903Z,53.23
2022-11-08T20:07:57.142Z,53.12
2022-11-08T20:10:27.691Z,53.37
2022-11-08T20:13:00.637Z,53.12
2022-11-08T20:15:30.983Z,53.16
2022-11-08T20:18:01.405Z,52.93
2022-11-08T20:20:32.188Z,52.77
2022-11-08T20:23:02.367Z,52.66
2022-11-08T20:25:32.469Z,52.57
2022-11-08T20:28:05.363Z,52.84
2022-11-08T20:30:35.729Z,53.13
2022-11-08T20:33:06.356Z,53.20
2022-11-08T20:35:38.757Z,53.29
2022-11-08T20:38:08.884Z,53.26
2022-11-08T20:40:41.200Z,53.88
2022-11-08T20:43:14.041Z,54.20
2022-11-08T20:45:44.179Z,54.28
2022-11-08T20:48:14.328Z,54.40
2022-11-08T20:50:44.587Z,54.39
2022-11-08T20:53:14.761Z,54.60
2022-11-08T20:55:44.814Z,54.58
2022-11-08T20:58:17.893Z,54.32
2022-11-08T21:00:58.164Z,54.63
2022-11-08T21:03:30.404Z,54.96
2022-11-08T21:06:03.777Z,54.83
2022-11-08T21:11:24.838Z,54.87
2022-11-08T21:13:57.635Z,54.82
2022-11-08T21:16:30.471Z,54.69
2022-11-08T21:19:01.104Z,54.62
2022-11-08T21:21:31.769Z,54.69
2022-11-08T21:24:01.916Z,54.97
2022-11-08T21:26:36.473Z,54.77
2022-11-08T21:29:10.284Z,54.82
2022-11-08T21:31:40.490Z,54.87
2022-11-08T21:34:12.006Z,54.83
2022-11-08T21:36:42.100Z,55.01
2022-11-08T21:39:12.306Z,54.95
2022-11-08T21:41:42.531Z,54.55
2022-11-08T21:44:15.357Z,54.30
2022-11-08T21:46:45.691Z,54.46
2022-11-08T21:49:16.466Z,54.69
2022-11-08T21:51:46.545Z,54.74
2022-11-08T21:54:16.584Z,54.90
2022-11-08T21:56:46.660Z,54.91
2022-11-08T21:59:19.359Z,54.94
2022-11-08T22:01:49.488Z,55.18
2022-11-08T22:04:19.498Z,55.40
2022-11-08T22:06:49.653Z,55.40
2022-11-08T22:09:19.741Z,55.23
2022-11-08T22:11:49.783Z,55.64
2022-11-08T22:14:25.625Z,55.47
2022-11-08T22:16:55.732Z,55.58
2022-11-08T22:19:25.702Z,55.79
2022-11-08T22:21:55.791Z,55.55
2022-11-08T22:24:25.927Z,55.60
2022-11-08T22:26:56.239Z,55.59
2022-11-08T22:29:29.015Z,55.58
2022-11-08T22:31:59.133Z,55.40
2022-11-08T22:34:29.158Z,55.49
2022-11-08T22:36:59.302Z,55.52
2022-11-08T22:39:29.389Z,55.78
2022-11-08T22:41:59.392Z,55.85
2022-11-08T22:44:32.091Z,55.87
2022-11-08T22:47:02.192Z,55.89
2022-11-08T22:49:32.305Z,55.75
2022-11-08T22:52:02.331Z,55.75
2022-11-08T22:54:32.389Z,56.08
2022-11-08T22:57:04.262Z,56.03
2022-11-08T22:59:37.016Z,55.74
2022-11-08T23:02:07.191Z,55.92
2022-11-08T23:04:37.364Z,56.07
2022-11-08T23:07:07.484Z,56.02
2022-11-08T23:09:37.555Z,55.79
2022-11-08T23:12:20.246Z,55.96
2022-11-08T23:15:20.181Z,56.18
2022-11-08T23:17:50.289Z,56.33
2022-11-08T23:20:33.050Z,56.42
2022-11-08T23:23:15.734Z,56.32
2022-11-08T23:25:46.115Z,56.61
2022-11-08T23:28:28.640Z,56.55
2022-11-08T23:31:32.277Z,57.97
2022-11-08T23:34:02.484Z,58.79
2022-11-08T23:36:32.693Z,58.80
2022-11-08T23:39:02.766Z,58.61
2022-11-08T23:41:45.289Z,58.88
2022-11-08T23:44:27.877Z,58.25
2022-11-08T23:47:02.742Z,58.30
2022-11-08T23:49:32.895Z,58.40
2022-11-08T23:52:02.931Z,58.82
2022-11-08T23:54:32.952Z,59.26
2022-11-08T23:57:02.997Z,59.48
2022-11-08T23:59:33.324Z,59.86
